sensor_id;sensor_type;location;lat;lon;timestamp;temperature;humidity
39849;DHT22;25518;47.878;15.914;2023-04-06T00:01:56;-1.80;99.90
39849;DHT22;25518;47.878;15.914;2023-04-06T00:04:45;-1.80;99.90
39849;DHT22;25518;47.878;15.914;2023-04-06T00:07:35;-1.90;99.90
39849;DHT22;25518;47.878;15.914;2023-04-06T00:10:24;-2.00;99.90
39849;DHT22;25518;47.878;15.914;2023-04-06T00:13:14;-1.90;99.90
39849;DHT22;25518;47.878;15.914;2023-04-06T00:16:04;-2.00;99.90
39849;DHT22;25518;47.878;15.914;2023-04-06T00:18:55;-1.90;99.90
39849;DHT22;25518;47.878;15.914;2023-04-06T00:21:44;-1.90;99.90
39849;DHT22;25518;47.878;15.914;2023-04-06T00:24:35;-2.80;99.90
39849;DHT22;25518;47.878;15.914;2023-04-06T00:27:24;-2.20;99.90
39849;DHT22;25518;47.878;15.914;2023-04-06T00:30:14;-2.10;99.90
39849;DHT22;25518;47.878;15.914;2023-04-06T00:33:04;-2.00;99.90
39849;DHT22;25518;47.878;15.914;2023-04-06T00:35:54;-2.10;99.90
39849;DHT22;25518;47.878;15.914;2023-04-06T00:38:44;-2.10;99.90
39849;DHT22;25518;47.878;15.914;2023-04-06T00:41:34;-2.00;99.90
39849;DHT22;25518;47.878;15.914;2023-04-06T00:44:24;-2.10;99.90
39849;DHT22;25518;47.878;15.914;2023-04-06T00:47:14;-2.10;99.90
39849;DHT22;25518;47.878;15.914;2023-04-06T00:50:04;-2.10;99.90
39849;DHT22;25518;47.878;15.914;2023-04-06T00:52:54;-2.30;99.90
39849;DHT22;25518;47.878;15.914;2023-04-06T00:55:44;-2.20;99.90
39849;DHT22;25518;47.878;15.914;2023-04-06T00:58:34;-2.20;99.90
39849;DHT22;25518;47.878;15.914;2023-04-06T01:01:28;-2.30;99.90
39849;DHT22;25518;47.878;15.914;2023-04-06T01:04:17;-2.30;99.90
39849;DHT22;25518;47.878;15.914;2023-04-06T01:07:07;-2.40;99.90
39849;DHT22;25518;47.878;15.914;2023-04-06T01:09:57;-2.50;99.90
39849;DHT22;25518;47.878;15.914;2023-04-06T01:12:47;-2.30;99.90
39849;DHT22;25518;47.878;15.914;2023-04-06T01:15:37;-2.20;99.90
39849;DHT22;25518;47.878;15.914;2023-04-06T01:18:29;-2.10;99.90
39849;DHT22;25518;47.878;15.914;2023-04-06T01:21:18;-2.10;99.90
39849;DHT22;25518;47.878;15.914;2023-04-06T01:24:09;-2.30;99.90
39849;DHT22;25518;47.878;15.914;2023-04-06T01:26:59;-2.30;99.90
39849;DHT22;25518;47.878;15.914;2023-04-06T01:29:50;-2.40;99.90
39849;DHT22;25518;47.878;15.914;2023-04-06T01:32:39;-2.40;99.90
39849;DHT22;25518;47.878;15.914;2023-04-06T01:35:30;-2.30;99.90
39849;DHT22;25518;47.878;15.914;2023-04-06T01:38:20;-2.30;99.90
39849;DHT22;25518;47.878;15.914;2023-04-06T01:41:10;-2.50;99.90
39849;DHT22;25518;47.878;15.914;2023-04-06T01:44:00;-2.60;99.90
39849;DHT22;25518;47.878;15.914;2023-04-06T01:46:49;-2.60;99.90
39849;DHT22;25518;47.878;15.914;2023-04-06T01:49:39;-2.60;99.90
39849;DHT22;25518;47.878;15.914;2023-04-06T01:52:29;-2.60;99.90
39849;DHT22;25518;47.878;15.914;2023-04-06T01:55:19;-2.50;99.90
39849;DHT22;25518;47.878;15.914;2023-04-06T01:58:08;-2.60;99.90
39849;DHT22;25518;47.878;15.914;2023-04-06T02:00:58;-2.70;99.90
39849;DHT22;25518;47.878;15.914;2023-04-06T02:03:48;-2.70;99.90
39849;DHT22;25518;47.878;15.914;2023-04-06T02:06:38;-2.60;99.90
39849;DHT22;25518;47.878;15.914;2023-04-06T02:09:27;-2.70;99.90
39849;DHT22;25518;47.878;15.914;2023-04-06T02:12:17;-2.80;99.90
39849;DHT22;25518;47.878;15.914;2023-04-06T02:15:07;-2.70;99.90
39849;DHT22;25518;47.878;15.914;2023-04-06T02:17:58;-2.80;99.90
39849;DHT22;25518;47.878;15.914;2023-04-06T02:20:48;-2.70;99.90
39849;DHT22;25518;47.878;15.914;2023-04-06T02:23:38;-2.70;99.90
39849;DHT22;25518;47.878;15.914;2023-04-06T02:26:27;-2.80;99.90
39849;DHT22;25518;47.878;15.914;2023-04-06T02:29:17;-2.90;99.90
39849;DHT22;25518;47.878;15.914;2023-04-06T02:32:07;-2.90;99.90
39849;DHT22;25518;47.878;15.914;2023-04-06T02:34:56;-2.90;99.90
39849;DHT22;25518;47.878;15.914;2023-04-06T02:37:46;-2.80;99.90
39849;DHT22;25518;47.878;15.914;2023-04-06T02:40:36;-3.00;99.90
39849;DHT22;25518;47.878;15.914;2023-04-06T02:43:25;-3.00;99.90
39849;DHT22;25518;47.878;15.914;2023-04-06T02:46:16;-3.10;99.90
39849;DHT22;25518;47.878;15.914;2023-04-06T02:49:05;-3.20;99.90
39849;DHT22;25518;47.878;15.914;2023-04-06T02:51:55;-3.10;99.90
39849;DHT22;25518;47.878;15.914;2023-04-06T02:54:45;-2.90;99.90
39849;DHT22;25518;47.878;15.914;2023-04-06T02:57:34;-4.20;99.90
39849;DHT22;25518;47.878;15.914;2023-04-06T03:00:24;-2.90;99.90
39849;DHT22;25518;47.878;15.914;2023-04-06T03:20:10;-3.30;99.90
39849;DHT22;25518;47.878;15.914;2023-04-06T03:23:00;-3.30;99.90
39849;DHT22;25518;47.878;15.914;2023-04-06T03:25:49;-3.00;99.90
39849;DHT22;25518;47.878;15.914;2023-04-06T03:28:39;-3.20;99.90
39849;DHT22;25518;47.878;15.914;2023-04-06T03:31:29;-3.30;99.90
39849;DHT22;25518;47.878;15.914;2023-04-06T03:34:19;-3.20;99.90
39849;DHT22;25518;47.878;15.914;2023-04-06T03:37:09;-3.10;99.90
39849;DHT22;25518;47.878;15.914;2023-04-06T03:39:58;-3.20;99.90
39849;DHT22;25518;47.878;15.914;2023-04-06T03:42:48;-3.20;99.90
39849;DHT22;25518;47.878;15.914;2023-04-06T03:45:39;-3.40;99.90
39849;DHT22;25518;47.878;15.914;2023-04-06T03:48:28;-3.40;99.90
39849;DHT22;25518;47.878;15.914;2023-04-06T03:51:18;-3.40;99.90
39849;DHT22;25518;47.878;15.914;2023-04-06T03:54:07;-3.20;99.90
39849;DHT22;25518;47.878;15.914;2023-04-06T03:56:57;-3.20;99.90
39849;DHT22;25518;47.878;15.914;2023-04-06T03:59:46;-3.30;99.90
39849;DHT22;25518;47.878;15.914;2023-04-06T04:02:36;-3.30;99.90
39849;DHT22;25518;47.878;15.914;2023-04-06T04:05:26;-3.50;99.90
39849;DHT22;25518;47.878;15.914;2023-04-06T04:08:15;-3.40;99.90
39849;DHT22;25518;47.878;15.914;2023-04-06T04:11:05;-3.30;99.90
39849;DHT22;25518;47.878;15.914;2023-04-06T04:13:54;-3.40;99.90
39849;DHT22;25518;47.878;15.914;2023-04-06T04:16:44;-3.50;99.90
39849;DHT22;25518;47.878;15.914;2023-04-06T04:19:34;-3.50;99.90
39849;DHT22;25518;47.878;15.914;2023-04-06T04:22:24;-3.60;99.90
39849;DHT22;25518;47.878;15.914;2023-04-06T04:25:14;-3.60;99.90
39849;DHT22;25518;47.878;15.914;2023-04-06T04:28:03;-3.70;99.90
39849;DHT22;25518;47.878;15.914;2023-04-06T04:30:53;-3.60;99.90
39849;DHT22;25518;47.878;15.914;2023-04-06T04:33:43;-3.60;99.90
39849;DHT22;25518;47.878;15.914;2023-04-06T04:36:33;-3.60;99.90
39849;DHT22;25518;47.878;15.914;2023-04-06T04:39:22;-3.70;99.90
39849;DHT22;25518;47.878;15.914;2023-04-06T04:42:11;-3.80;99.90
39849;DHT22;25518;47.878;15.914;2023-04-06T04:45:01;-3.70;99.90
39849;DHT22;25518;47.878;15.914;2023-04-06T04:47:51;-3.70;99.90
39849;DHT22;25518;47.878;15.914;2023-04-06T04:50:40;-3.60;99.90
39849;DHT22;25518;47.878;15.914;2023-04-06T04:53:30;-3.50;99.90
39849;DHT22;25518;47.878;15.914;2023-04-06T04:56:19;-3.50;99.90
39849;DHT22;25518;47.878;15.914;2023-04-06T04:59:09;-3.50;99.90
39849;DHT22;25518;47.878;15.914;2023-04-06T05:01:59;-3.40;99.90
39849;DHT22;25518;47.878;15.914;2023-04-06T05:04:48;-3.40;99.90
39849;DHT22;25518;47.878;15.914;2023-04-06T05:07:38;-3.30;99.90
39849;DHT22;25518;47.878;15.914;2023-04-06T05:10:27;-3.40;99.90
39849;DHT22;25518;47.878;15.914;2023-04-06T05:13:17;-2.30;99.90
39849;DHT22;25518;47.878;15.914;2023-04-06T05:16:06;-3.20;99.90
39849;DHT22;25518;47.878;15.914;2023-04-06T05:18:56;-3.10;99.90
39849;DHT22;25518;47.878;15.914;2023-04-06T05:21:45;-3.10;99.90
39849;DHT22;25518;47.878;15.914;2023-04-06T05:24:35;-3.20;99.90
39849;DHT22;25518;47.878;15.914;2023-04-06T05:27:25;-3.10;99.90
39849;DHT22;25518;47.878;15.914;2023-04-06T05:30:15;-2.90;99.90
39849;DHT22;25518;47.878;15.914;2023-04-06T05:33:04;-2.90;99.90
39849;DHT22;25518;47.878;15.914;2023-04-06T05:35:54;-3.00;99.90
39849;DHT22;25518;47.878;15.914;2023-04-06T05:38:43;-4.40;99.90
39849;DHT22;25518;47.878;15.914;2023-04-06T05:41:33;-4.40;99.90
39849;DHT22;25518;47.878;15.914;2023-04-06T05:44:23;-3.00;99.90
39849;DHT22;25518;47.878;15.914;2023-04-06T05:47:13;-3.50;99.90
39849;DHT22;25518;47.878;15.914;2023-04-06T05:50:02;-2.70;99.90
39849;DHT22;25518;47.878;15.914;2023-04-06T05:52:52;-3.40;99.90
39849;DHT22;25518;47.878;15.914;2023-04-06T05:55:42;-2.60;99.90
39849;DHT22;25518;47.878;15.914;2023-04-06T05:58:32;-2.50;99.90
39849;DHT22;25518;47.878;15.914;2023-04-06T06:01:22;-2.30;99.90
39849;DHT22;25518;47.878;15.914;2023-04-06T06:04:11;-2.30;99.90
39849;DHT22;25518;47.878;15.914;2023-04-06T06:07:01;-2.20;99.90
39849;DHT22;25518;47.878;15.914;2023-04-06T06:09:51;-2.20;99.90
39849;DHT22;25518;47.878;15.914;2023-04-06T06:12:40;-2.10;99.90
39849;DHT22;25518;47.878;15.914;2023-04-06T06:15:30;-2.00;99.90
39849;DHT22;25518;47.878;15.914;2023-04-06T06:18:19;-2.00;99.90
39849;DHT22;25518;47.878;15.914;2023-04-06T06:21:09;-1.90;99.90
39849;DHT22;25518;47.878;15.914;2023-04-06T06:24:01;-1.80;99.90
39849;DHT22;25518;47.878;15.914;2023-04-06T06:26:51;-1.80;99.90
39849;DHT22;25518;47.878;15.914;2023-04-06T06:29:41;-1.70;99.90
39849;DHT22;25518;47.878;15.914;2023-04-06T06:32:31;-1.60;99.90
39849;DHT22;25518;47.878;15.914;2023-04-06T06:35:21;-1.50;99.90
39849;DHT22;25518;47.878;15.914;2023-04-06T06:38:11;-1.40;99.90
39849;DHT22;25518;47.878;15.914;2023-04-06T06:41:00;-1.20;99.90
39849;DHT22;25518;47.878;15.914;2023-04-06T06:43:50;-1.10;99.90
39849;DHT22;25518;47.878;15.914;2023-04-06T06:46:39;-1.00;99.90
39849;DHT22;25518;47.878;15.914;2023-04-06T06:49:29;-1.00;99.90
39849;DHT22;25518;47.878;15.914;2023-04-06T06:52:19;-0.80;99.90
39849;DHT22;25518;47.878;15.914;2023-04-06T06:55:10;-0.30;99.90
39849;DHT22;25518;47.878;15.914;2023-04-06T06:58:00;-0.10;99.90
39849;DHT22;25518;47.878;15.914;2023-04-06T07:00:50;0.30;99.90
39849;DHT22;25518;47.878;15.914;2023-04-06T07:03:39;0.40;99.90
39849;DHT22;25518;47.878;15.914;2023-04-06T07:06:29;0.80;99.90
39849;DHT22;25518;47.878;15.914;2023-04-06T07:09:19;0.70;99.90
39849;DHT22;25518;47.878;15.914;2023-04-06T07:12:09;0.80;99.90
39849;DHT22;25518;47.878;15.914;2023-04-06T07:14:58;1.30;99.90
39849;DHT22;25518;47.878;15.914;2023-04-06T07:17:48;1.60;99.90
39849;DHT22;25518;47.878;15.914;2023-04-06T07:20:37;1.80;99.90
39849;DHT22;25518;47.878;15.914;2023-04-06T07:23:27;1.70;99.90
39849;DHT22;25518;47.878;15.914;2023-04-06T07:26:17;1.90;99.90
39849;DHT22;25518;47.878;15.914;2023-04-06T07:29:06;2.10;99.90
39849;DHT22;25518;47.878;15.914;2023-04-06T07:31:56;2.10;99.90
39849;DHT22;25518;47.878;15.914;2023-04-06T07:34:46;2.20;99.90
39849;DHT22;25518;47.878;15.914;2023-04-06T07:37:36;2.40;99.90
39849;DHT22;25518;47.878;15.914;2023-04-06T07:40:25;1.20;99.90
39849;DHT22;25518;47.878;15.914;2023-04-06T07:43:16;2.50;99.90
39849;DHT22;25518;47.878;15.914;2023-04-06T07:46:05;2.50;99.90
39849;DHT22;25518;47.878;15.914;2023-04-06T07:48:57;2.60;99.90
39849;DHT22;25518;47.878;15.914;2023-04-06T07:51:47;2.60;99.90
39849;DHT22;25518;47.878;15.914;2023-04-06T07:54:36;2.70;99.90
39849;DHT22;25518;47.878;15.914;2023-04-06T07:57:26;2.50;99.90
39849;DHT22;25518;47.878;15.914;2023-04-06T08:00:15;0.90;99.90
39849;DHT22;25518;47.878;15.914;2023-04-06T08:03:05;2.80;99.90
39849;DHT22;25518;47.878;15.914;2023-04-06T08:05:55;2.90;99.90
39849;DHT22;25518;47.878;15.914;2023-04-06T08:08:45;3.10;99.90
39849;DHT22;25518;47.878;15.914;2023-04-06T08:11:34;3.30;99.90
39849;DHT22;25518;47.878;15.914;2023-04-06T08:14:24;3.30;99.90
39849;DHT22;25518;47.878;15.914;2023-04-06T08:17:14;3.10;99.90
39849;DHT22;25518;47.878;15.914;2023-04-06T08:20:04;3.30;99.90
39849;DHT22;25518;47.878;15.914;2023-04-06T08:22:54;3.40;99.90
39849;DHT22;25518;47.878;15.914;2023-04-06T08:25:43;3.50;99.90
39849;DHT22;25518;47.878;15.914;2023-04-06T08:28:33;3.40;99.90
39849;DHT22;25518;47.878;15.914;2023-04-06T08:31:23;3.60;99.90
39849;DHT22;25518;47.878;15.914;2023-04-06T08:34:13;3.60;99.60
39849;DHT22;25518;47.878;15.914;2023-04-06T08:37:04;3.70;99.90
39849;DHT22;25518;47.878;15.914;2023-04-06T08:39:54;3.50;99.90
39849;DHT22;25518;47.878;15.914;2023-04-06T08:42:52;3.40;99.90
39849;DHT22;25518;47.878;15.914;2023-04-06T08:45:41;3.60;99.90
39849;DHT22;25518;47.878;15.914;2023-04-06T08:48:32;3.80;99.90
39849;DHT22;25518;47.878;15.914;2023-04-06T08:51:23;3.90;99.90
39849;DHT22;25518;47.878;15.914;2023-04-06T08:54:15;3.90;99.90
39849;DHT22;25518;47.878;15.914;2023-04-06T08:57:05;4.00;99.90
39849;DHT22;25518;47.878;15.914;2023-04-06T08:59:56;4.00;99.30
39849;DHT22;25518;47.878;15.914;2023-04-06T09:02:49;4.00;97.50
39849;DHT22;25518;47.878;15.914;2023-04-06T09:05:39;4.10;98.40
39849;DHT22;25518;47.878;15.914;2023-04-06T09:08:29;4.30;98.00
39849;DHT22;25518;47.878;15.914;2023-04-06T09:11:19;4.30;97.80
39849;DHT22;25518;47.878;15.914;2023-04-06T09:14:09;4.50;97.30
39849;DHT22;25518;47.878;15.914;2023-04-06T09:16:58;4.60;96.50
39849;DHT22;25518;47.878;15.914;2023-04-06T09:19:48;4.70;98.00
39849;DHT22;25518;47.878;15.914;2023-04-06T09:22:39;4.60;96.90
39849;DHT22;25518;47.878;15.914;2023-04-06T09:25:29;4.60;96.20
39849;DHT22;25518;47.878;15.914;2023-04-06T09:28:20;4.60;97.10
39849;DHT22;25518;47.878;15.914;2023-04-06T09:31:10;4.90;96.20
39849;DHT22;25518;47.878;15.914;2023-04-06T09:34:00;5.20;96.10
39849;DHT22;25518;47.878;15.914;2023-04-06T09:36:49;5.00;93.50
39849;DHT22;25518;47.878;15.914;2023-04-06T09:39:41;5.00;94.30
39849;DHT22;25518;47.878;15.914;2023-04-06T09:42:30;5.00;93.40
39849;DHT22;25518;47.878;15.914;2023-04-06T09:45:20;5.00;92.90
39849;DHT22;25518;47.878;15.914;2023-04-06T09:48:10;5.20;93.40
39849;DHT22;25518;47.878;15.914;2023-04-06T09:51:03;5.30;92.50
39849;DHT22;25518;47.878;15.914;2023-04-06T09:53:56;5.40;92.00
39849;DHT22;25518;47.878;15.914;2023-04-06T09:56:55;5.50;92.40
39849;DHT22;25518;47.878;15.914;2023-04-06T10:00:07;5.60;92.20
39849;DHT22;25518;47.878;15.914;2023-04-06T10:03:08;5.70;92.50
39849;DHT22;25518;47.878;15.914;2023-04-06T10:06:05;5.80;91.80
39849;DHT22;25518;47.878;15.914;2023-04-06T10:08:56;5.70;92.30
39849;DHT22;25518;47.878;15.914;2023-04-06T10:11:48;5.90;93.40
39849;DHT22;25518;47.878;15.914;2023-04-06T10:14:39;6.20;91.70
39849;DHT22;25518;47.878;15.914;2023-04-06T10:17:30;6.20;93.90
39849;DHT22;25518;47.878;15.914;2023-04-06T10:23:56;5.80;92.30
39849;DHT22;25518;47.878;15.914;2023-04-06T10:26:33;6.00;94.00
39849;DHT22;25518;47.878;15.914;2023-04-06T10:29:23;5.40;93.10
39849;DHT22;25518;47.878;15.914;2023-04-06T10:32:13;5.20;94.20
39849;DHT22;25518;47.878;15.914;2023-04-06T10:35:11;5.40;93.50
39849;DHT22;25518;47.878;15.914;2023-04-06T10:38:04;5.90;93.10
39849;DHT22;25518;47.878;15.914;2023-04-06T10:41:04;6.20;91.60
39849;DHT22;25518;47.878;15.914;2023-04-06T10:43:56;6.60;91.90
39849;DHT22;25518;47.878;15.914;2023-04-06T10:46:55;6.70;92.50
39849;DHT22;25518;47.878;15.914;2023-04-06T10:49:45;6.80;91.10
39849;DHT22;25518;47.878;15.914;2023-04-06T10:52:35;7.00;90.70
39849;DHT22;25518;47.878;15.914;2023-04-06T10:55:26;7.10;92.00
39849;DHT22;25518;47.878;15.914;2023-04-06T10:58:17;7.10;90.30
39849;DHT22;25518;47.878;15.914;2023-04-06T11:01:06;7.30;90.80
39849;DHT22;25518;47.878;15.914;2023-04-06T11:03:58;7.20;90.00
39849;DHT22;25518;47.878;15.914;2023-04-06T11:06:49;7.00;90.90
39849;DHT22;25518;47.878;15.914;2023-04-06T11:09:39;7.00;90.70
39849;DHT22;25518;47.878;15.914;2023-04-06T11:12:29;7.20;91.20
39849;DHT22;25518;47.878;15.914;2023-04-06T11:15:20;7.20;90.00
39849;DHT22;25518;47.878;15.914;2023-04-06T11:18:10;6.90;90.10
39849;DHT22;25518;47.878;15.914;2023-04-06T11:21:00;7.20;91.80
39849;DHT22;25518;47.878;15.914;2023-04-06T11:23:50;7.10;89.00
39849;DHT22;25518;47.878;15.914;2023-04-06T11:26:45;7.20;89.80
39849;DHT22;25518;47.878;15.914;2023-04-06T11:29:35;7.60;90.30
39849;DHT22;25518;47.878;15.914;2023-04-06T11:32:27;7.60;86.90
39849;DHT22;25518;47.878;15.914;2023-04-06T11:35:21;7.60;88.30
39849;DHT22;25518;47.878;15.914;2023-04-06T11:38:11;7.70;88.80
39849;DHT22;25518;47.878;15.914;2023-04-06T11:41:01;7.90;90.30
39849;DHT22;25518;47.878;15.914;2023-04-06T11:43:51;7.90;84.80
39849;DHT22;25518;47.878;15.914;2023-04-06T11:46:53;6.40;88.00
39849;DHT22;25518;47.878;15.914;2023-04-06T11:49:44;8.10;89.50
39849;DHT22;25518;47.878;15.914;2023-04-06T11:52:34;8.20;87.60
39849;DHT22;25518;47.878;15.914;2023-04-06T11:55:24;8.40;86.00
39849;DHT22;25518;47.878;15.914;2023-04-06T11:58:14;8.50;86.70
39849;DHT22;25518;47.878;15.914;2023-04-06T12:01:04;8.30;84.00
39849;DHT22;25518;47.878;15.914;2023-04-06T12:03:54;8.40;85.70
39849;DHT22;25518;47.878;15.914;2023-04-06T12:06:44;8.70;88.30
39849;DHT22;25518;47.878;15.914;2023-04-06T12:09:34;9.00;86.30
39849;DHT22;25518;47.878;15.914;2023-04-06T12:12:25;9.00;87.20
39849;DHT22;25518;47.878;15.914;2023-04-06T12:15:14;9.10;84.60
39849;DHT22;25518;47.878;15.914;2023-04-06T12:18:04;8.90;82.70
39849;DHT22;25518;47.878;15.914;2023-04-06T12:20:54;8.30;82.00
39849;DHT22;25518;47.878;15.914;2023-04-06T12:23:43;7.60;83.70
39849;DHT22;25518;47.878;15.914;2023-04-06T12:26:33;8.40;85.40
39849;DHT22;25518;47.878;15.914;2023-04-06T12:29:24;8.60;82.60
39849;DHT22;25518;47.878;15.914;2023-04-06T12:32:14;8.80;84.90
39849;DHT22;25518;47.878;15.914;2023-04-06T12:35:04;9.10;84.00
39849;DHT22;25518;47.878;15.914;2023-04-06T12:37:54;9.10;83.40
39849;DHT22;25518;47.878;15.914;2023-04-06T12:40:44;8.40;81.70
39849;DHT22;25518;47.878;15.914;2023-04-06T12:43:34;8.80;82.70
39849;DHT22;25518;47.878;15.914;2023-04-06T12:46:23;7.70;83.50
39849;DHT22;25518;47.878;15.914;2023-04-06T12:49:14;8.40;86.40
39849;DHT22;25518;47.878;15.914;2023-04-06T12:52:06;8.80;84.90
39849;DHT22;25518;47.878;15.914;2023-04-06T12:54:56;8.80;83.90
39849;DHT22;25518;47.878;15.914;2023-04-06T12:57:45;8.50;82.20
39849;DHT22;25518;47.878;15.914;2023-04-06T13:00:35;8.30;83.90
39849;DHT22;25518;47.878;15.914;2023-04-06T13:03:26;8.60;86.00
39849;DHT22;25518;47.878;15.914;2023-04-06T13:06:15;8.40;84.00
39849;DHT22;25518;47.878;15.914;2023-04-06T13:09:05;8.40;83.30
39849;DHT22;25518;47.878;15.914;2023-04-06T13:11:56;8.60;82.70
39849;DHT22;25518;47.878;15.914;2023-04-06T13:14:46;8.70;83.20
39849;DHT22;25518;47.878;15.914;2023-04-06T13:17:40;8.90;83.00
39849;DHT22;25518;47.878;15.914;2023-04-06T13:20:29;9.10;84.90
39849;DHT22;25518;47.878;15.914;2023-04-06T13:23:19;8.90;82.60
39849;DHT22;25518;47.878;15.914;2023-04-06T13:26:09;11.00;86.80
39849;DHT22;25518;47.878;15.914;2023-04-06T13:28:59;9.20;82.30
39849;DHT22;25518;47.878;15.914;2023-04-06T13:31:50;9.00;81.20
39849;DHT22;25518;47.878;15.914;2023-04-06T13:34:39;8.80;86.00
39849;DHT22;25518;47.878;15.914;2023-04-06T13:37:34;9.30;83.00
39849;DHT22;25518;47.878;15.914;2023-04-06T13:40:24;9.20;81.60
39849;DHT22;25518;47.878;15.914;2023-04-06T13:43:14;9.20;82.60
39849;DHT22;25518;47.878;15.914;2023-04-06T13:46:04;9.30;83.30
39849;DHT22;25518;47.878;15.914;2023-04-06T13:48:54;8.80;82.20
39849;DHT22;25518;47.878;15.914;2023-04-06T13:51:43;9.30;85.40
39849;DHT22;25518;47.878;15.914;2023-04-06T13:54:33;9.70;84.50
39849;DHT22;25518;47.878;15.914;2023-04-06T13:57:22;9.60;82.80
39849;DHT22;25518;47.878;15.914;2023-04-06T14:00:12;9.40;82.00
39849;DHT22;25518;47.878;15.914;2023-04-06T14:03:03;9.60;82.80
39849;DHT22;25518;47.878;15.914;2023-04-06T14:05:53;9.50;82.90
39849;DHT22;25518;47.878;15.914;2023-04-06T14:08:43;9.90;86.80
39849;DHT22;25518;47.878;15.914;2023-04-06T14:11:33;10.00;83.60
39849;DHT22;25518;47.878;15.914;2023-04-06T14:14:23;9.90;80.80
39849;DHT22;25518;47.878;15.914;2023-04-06T14:17:13;9.00;81.20
39849;DHT22;25518;47.878;15.914;2023-04-06T14:20:03;9.00;83.50
39849;DHT22;25518;47.878;15.914;2023-04-06T14:22:53;7.50;83.00
39849;DHT22;25518;47.878;15.914;2023-04-06T14:25:44;9.00;84.00
39849;DHT22;25518;47.878;15.914;2023-04-06T14:28:35;9.50;82.70
39849;DHT22;25518;47.878;15.914;2023-04-06T14:31:26;9.50;82.00
39849;DHT22;25518;47.878;15.914;2023-04-06T14:34:15;9.70;82.10
39849;DHT22;25518;47.878;15.914;2023-04-06T14:37:05;9.50;82.70
39849;DHT22;25518;47.878;15.914;2023-04-06T14:39:55;9.10;81.40
39849;DHT22;25518;47.878;15.914;2023-04-06T14:42:45;8.70;82.50
39849;DHT22;25518;47.878;15.914;2023-04-06T14:45:34;8.70;82.20
39849;DHT22;25518;47.878;15.914;2023-04-06T14:48:26;8.70;84.20
39849;DHT22;25518;47.878;15.914;2023-04-06T14:51:15;8.90;84.00
39849;DHT22;25518;47.878;15.914;2023-04-06T14:54:05;9.30;82.80
39849;DHT22;25518;47.878;15.914;2023-04-06T14:56:55;9.40;84.10
39849;DHT22;25518;47.878;15.914;2023-04-06T14:59:46;9.10;82.40
39849;DHT22;25518;47.878;15.914;2023-04-06T15:02:35;9.00;82.60
39849;DHT22;25518;47.878;15.914;2023-04-06T15:05:25;9.00;85.20
39849;DHT22;25518;47.878;15.914;2023-04-06T15:08:15;9.40;82.90
39849;DHT22;25518;47.878;15.914;2023-04-06T15:11:06;8.80;82.50
39849;DHT22;25518;47.878;15.914;2023-04-06T15:13:56;9.50;83.80
39849;DHT22;25518;47.878;15.914;2023-04-06T15:16:45;9.70;82.50
39849;DHT22;25518;47.878;15.914;2023-04-06T15:19:35;9.70;81.60
39849;DHT22;25518;47.878;15.914;2023-04-06T15:22:25;9.70;82.80
39849;DHT22;25518;47.878;15.914;2023-04-06T15:25:15;9.70;82.20
39849;DHT22;25518;47.878;15.914;2023-04-06T15:28:05;9.60;80.80
39849;DHT22;25518;47.878;15.914;2023-04-06T15:30:55;9.70;82.80
39849;DHT22;25518;47.878;15.914;2023-04-06T15:33:46;9.60;81.60
39849;DHT22;25518;47.878;15.914;2023-04-06T15:36:35;9.90;81.30
39849;DHT22;25518;47.878;15.914;2023-04-06T15:39:25;9.80;82.40
39849;DHT22;25518;47.878;15.914;2023-04-06T15:42:14;9.30;81.20
39849;DHT22;25518;47.878;15.914;2023-04-06T15:45:05;9.20;82.90
39849;DHT22;25518;47.878;15.914;2023-04-06T15:47:55;9.10;83.70
39849;DHT22;25518;47.878;15.914;2023-04-06T15:50:45;8.80;81.90
39849;DHT22;25518;47.878;15.914;2023-04-06T15:53:34;8.90;83.40
39849;DHT22;25518;47.878;15.914;2023-04-06T15:56:24;8.90;84.30
39849;DHT22;25518;47.878;15.914;2023-04-06T15:59:14;8.80;83.50
39849;DHT22;25518;47.878;15.914;2023-04-06T16:02:04;9.20;83.30
39849;DHT22;25518;47.878;15.914;2023-04-06T16:04:54;9.50;82.00
39849;DHT22;25518;47.878;15.914;2023-04-06T16:07:44;9.60;81.60
39849;DHT22;25518;47.878;15.914;2023-04-06T16:10:34;9.40;81.90
39849;DHT22;25518;47.878;15.914;2023-04-06T16:13:23;9.20;83.20
39849;DHT22;25518;47.878;15.914;2023-04-06T16:16:13;9.10;83.20
39849;DHT22;25518;47.878;15.914;2023-04-06T16:19:02;8.80;85.10
39849;DHT22;25518;47.878;15.914;2023-04-06T16:21:52;8.60;84.10
39849;DHT22;25518;47.878;15.914;2023-04-06T16:24:42;8.50;84.00
39849;DHT22;25518;47.878;15.914;2023-04-06T16:27:32;8.50;84.90
39849;DHT22;25518;47.878;15.914;2023-04-06T16:30:21;8.40;84.10
39849;DHT22;25518;47.878;15.914;2023-04-06T16:33:12;8.50;83.80
39849;DHT22;25518;47.878;15.914;2023-04-06T16:36:05;8.70;86.00
39849;DHT22;25518;47.878;15.914;2023-04-06T16:38:55;8.50;83.50
39849;DHT22;25518;47.878;15.914;2023-04-06T16:41:45;8.30;85.50
39849;DHT22;25518;47.878;15.914;2023-04-06T16:44:35;8.30;85.20
39849;DHT22;25518;47.878;15.914;2023-04-06T16:47:25;8.10;86.60
39849;DHT22;25518;47.878;15.914;2023-04-06T16:50:14;8.00;85.30
39849;DHT22;25518;47.878;15.914;2023-04-06T16:53:04;8.00;85.70
39849;DHT22;25518;47.878;15.914;2023-04-06T16:55:54;8.00;87.70
39849;DHT22;25518;47.878;15.914;2023-04-06T16:58:44;7.90;86.70
39849;DHT22;25518;47.878;15.914;2023-04-06T17:01:34;7.80;86.10
39849;DHT22;25518;47.878;15.914;2023-04-06T17:04:23;7.70;86.10
39849;DHT22;25518;47.878;15.914;2023-04-06T17:07:14;7.70;87.60
39849;DHT22;25518;47.878;15.914;2023-04-06T17:10:04;7.70;89.00
39849;DHT22;25518;47.878;15.914;2023-04-06T17:12:55;7.60;87.70
39849;DHT22;25518;47.878;15.914;2023-04-06T17:15:44;7.50;87.20
39849;DHT22;25518;47.878;15.914;2023-04-06T17:18:34;7.50;88.10
39849;DHT22;25518;47.878;15.914;2023-04-06T17:21:24;7.40;86.40
39849;DHT22;25518;47.878;15.914;2023-04-06T17:24:14;7.20;90.00
39849;DHT22;25518;47.878;15.914;2023-04-06T17:27:04;7.20;90.60
39849;DHT22;25518;47.878;15.914;2023-04-06T17:29:53;7.00;90.20
39849;DHT22;25518;47.878;15.914;2023-04-06T17:32:44;6.90;90.00
39849;DHT22;25518;47.878;15.914;2023-04-06T17:35:34;7.00;88.20
39849;DHT22;25518;47.878;15.914;2023-04-06T17:38:23;6.90;88.60
39849;DHT22;25518;47.878;15.914;2023-04-06T17:41:13;6.90;88.40
39849;DHT22;25518;47.878;15.914;2023-04-06T17:44:04;6.80;90.00
39849;DHT22;25518;47.878;15.914;2023-04-06T17:46:53;6.70;89.90
39849;DHT22;25518;47.878;15.914;2023-04-06T17:49:43;6.60;90.80
39849;DHT22;25518;47.878;15.914;2023-04-06T17:52:34;6.50;91.70
39849;DHT22;25518;47.878;15.914;2023-04-06T17:55:24;6.30;91.80
39849;DHT22;25518;47.878;15.914;2023-04-06T17:58:14;6.20;91.60
39849;DHT22;25518;47.878;15.914;2023-04-06T18:01:06;6.20;91.50
39849;DHT22;25518;47.878;15.914;2023-04-06T18:03:59;6.30;92.10
39849;DHT22;25518;47.878;15.914;2023-04-06T18:06:49;6.20;92.80
39849;DHT22;25518;47.878;15.914;2023-04-06T18:09:39;6.20;91.60